sensor_id;sensor_type;location;lat;lon;timestamp;pressure;altitude;pressure_sealevel;temperature;humidity
77303;BME280;66363;49.828;7.856;2022-12-31T00:01:28;99518.44;;;19.79;44.65
77303;BME280;66363;49.828;7.856;2022-12-31T00:03:53;99525.66;;;19.79;44.71
77303;BME280;66363;49.828;7.856;2022-12-31T00:06:22;99530.22;;;19.78;44.78
77303;BME280;66363;49.828;7.856;2022-12-31T00:08:49;99524.81;;;19.78;44.78
77303;BME280;66363;49.828;7.856;2022-12-31T00:11:15;99529.38;;;19.78;44.85
77303;BME280;66363;49.828;7.856;2022-12-31T00:13:41;99537.44;;;19.78;45.03
77303;BME280;66363;49.828;7.856;2022-12-31T00:16:10;99544.69;;;19.77;44.83
77303;BME280;66363;49.828;7.856;2022-12-31T00:18:36;99542.84;;;19.78;44.87
77303;BME280;66363;49.828;7.856;2022-12-31T00:21:07;99545.72;;;19.76;44.96
77303;BME280;66363;49.828;7.856;2022-12-31T00:23:33;99557.31;;;19.77;45.02
77303;BME280;66363;49.828;7.856;2022-12-31T00:26:02;99545.72;;;19.76;45.17
77303;BME280;66363;49.828;7.856;2022-12-31T00:28:28;99549.25;;;19.77;44.86
77303;BME280;66363;49.828;7.856;2022-12-31T00:30:54;99554.63;;;19.77;44.91
77303;BME280;66363;49.828;7.856;2022-12-31T00:33:21;99545.72;;;19.76;44.93
77303;BME280;66363;49.828;7.856;2022-12-31T00:35:46;99550.06;;;19.77;44.84
77303;BME280;66363;49.828;7.856;2022-12-31T00:38:12;99558.16;;;19.77;44.74
77303;BME280;66363;49.828;7.856;2022-12-31T00:40:38;99561.69;;;19.78;44.84
77303;BME280;66363;49.828;7.856;2022-12-31T00:43:03;99549.06;;;19.78;44.73
77303;BME280;66363;49.828;7.856;2022-12-31T00:45:29;99560.66;;;19.79;44.67
77303;BME280;66363;49.828;7.856;2022-12-31T00:47:54;99552.59;;;19.79;44.74
77303;BME280;66363;49.828;7.856;2022-12-31T00:50:21;99549.91;;;19.79;44.62
77303;BME280;66363;49.828;7.856;2022-12-31T00:52:47;99554.25;;;19.80;44.73
77303;BME280;66363;49.828;7.856;2022-12-31T00:55:12;99552.59;;;19.79;44.66
77303;BME280;66363;49.828;7.856;2022-12-31T00:57:38;99565.03;;;19.80;44.83
77303;BME280;66363;49.828;7.856;2022-12-31T01:00:04;99560.66;;;19.79;44.72
77303;BME280;66363;49.828;7.856;2022-12-31T01:02:30;99565.88;;;19.80;44.66
77303;BME280;66363;49.828;7.856;2022-12-31T01:04:55;99570.41;;;19.80;44.55
77303;BME280;66363;49.828;7.856;2022-12-31T01:07:22;99572.28;;;19.79;44.44
77303;BME280;66363;49.828;7.856;2022-12-31T01:09:48;99572.09;;;19.81;44.45
77303;BME280;66363;49.828;7.856;2022-12-31T01:12:14;99581.00;;;19.81;44.48
77303;BME280;66363;49.828;7.856;2022-12-31T01:14:39;99585.56;;;19.81;44.59
77303;BME280;66363;49.828;7.856;2022-12-31T01:17:05;99587.41;;;19.80;44.39
77303;BME280;66363;49.828;7.856;2022-12-31T01:19:30;99592.78;;;19.80;44.62
77303;BME280;66363;49.828;7.856;2022-12-31T01:21:56;99582.03;;;19.80;44.68
77303;BME280;66363;49.828;7.856;2022-12-31T01:24:23;99589.28;;;19.80;44.85
77303;BME280;66363;49.828;7.856;2022-12-31T01:26:48;99590.94;;;19.81;44.50
77303;BME280;66363;49.828;7.856;2022-12-31T01:29:14;99587.41;;;19.80;44.48
77303;BME280;66363;49.828;7.856;2022-12-31T01:31:40;99592.78;;;19.80;44.44
77303;BME280;66363;49.828;7.856;2022-12-31T01:34:06;99576.63;;;19.80;44.51
77303;BME280;66363;49.828;7.856;2022-12-31T01:36:33;99596.31;;;19.81;44.40
77303;BME280;66363;49.828;7.856;2022-12-31T01:39:00;99607.94;;;19.81;44.39
77303;BME280;66363;49.828;7.856;2022-12-31T01:41:30;99602.56;;;19.81;44.37
77303;BME280;66363;49.828;7.856;2022-12-31T01:43:58;99601.72;;;19.81;44.42
77303;BME280;66363;49.828;7.856;2022-12-31T01:46:27;99609.63;;;19.82;44.32
77303;BME280;66363;49.828;7.856;2022-12-31T01:48:56;99610.63;;;19.81;44.31
77303;BME280;66363;49.828;7.856;2022-12-31T01:51:25;99613.31;;;19.81;44.40
77303;BME280;66363;49.828;7.856;2022-12-31T01:53:54;99600.88;;;19.80;44.38
77303;BME280;66363;49.828;7.856;2022-12-31T01:56:22;99623.25;;;19.81;44.41
77303;BME280;66363;49.828;7.856;2022-12-31T01:58:51;99612.47;;;19.81;44.39
77303;BME280;66363;49.828;7.856;2022-12-31T02:01:23;99616.84;;;19.82;44.43
77303;BME280;66363;49.828;7.856;2022-12-31T02:03:50;99602.56;;;19.81;44.49
77303;BME280;66363;49.828;7.856;2022-12-31T02:06:18;99607.94;;;19.81;44.25
77303;BME280;66363;49.828;7.856;2022-12-31T02:08:45;99616.84;;;19.82;44.42
77303;BME280;66363;49.828;7.856;2022-12-31T02:11:25;99618.53;;;19.83;44.34
77303;BME280;66363;49.828;7.856;2022-12-31T02:13:53;99608.78;;;19.82;44.30
77303;BME280;66363;49.828;7.856;2022-12-31T02:16:24;99609.78;;;19.81;44.48
77303;BME280;66363;49.828;7.856;2022-12-31T02:18:56;99618.72;;;19.81;44.50
77303;BME280;66363;49.828;7.856;2022-12-31T02:21:45;99615.19;;;19.81;44.33
77303;BME280;66363;49.828;7.856;2022-12-31T02:27:09;99606.09;;;19.82;44.28
77303;BME280;66363;49.828;7.856;2022-12-31T02:29:59;99614.16;;;19.82;44.39
77303;BME280;66363;49.828;7.856;2022-12-31T02:32:49;99600.88;;;19.80;44.34
77303;BME280;66363;49.828;7.856;2022-12-31T02:35:23;99623.06;;;19.82;44.48
77303;BME280;66363;49.828;7.856;2022-12-31T02:37:56;99632.00;;;19.83;44.47
77303;BME280;66363;49.828;7.856;2022-12-31T02:40:22;99610.63;;;19.81;44.42
77303;BME280;66363;49.828;7.856;2022-12-31T02:42:48;99599.84;;;19.81;44.42
77303;BME280;66363;49.828;7.856;2022-12-31T02:45:19;99588.25;;;19.81;44.49
77303;BME280;66363;49.828;7.856;2022-12-31T02:47:58;99618.72;;;19.81;44.42
77303;BME280;66363;49.828;7.856;2022-12-31T02:50:35;99627.44;;;19.83;44.36
77303;BME280;66363;49.828;7.856;2022-12-31T02:53:13;99633.84;;;19.82;44.39
77303;BME280;66363;49.828;7.856;2022-12-31T02:55:46;99622.06;;;19.83;44.05
77303;BME280;66363;49.828;7.856;2022-12-31T02:58:20;99608.78;;;19.82;44.35
77303;BME280;66363;49.828;7.856;2022-12-31T03:00:52;99623.06;;;19.82;44.43
77303;BME280;66363;49.828;7.856;2022-12-31T03:03:20;99621.22;;;19.83;44.37
77303;BME280;66363;49.828;7.856;2022-12-31T03:05:47;99613.97;;;19.83;44.41
77303;BME280;66363;49.828;7.856;2022-12-31T03:08:20;99613.97;;;19.83;44.41
77303;BME280;66363;49.828;7.856;2022-12-31T03:10:45;99616.69;;;19.83;44.42
77303;BME280;66363;49.828;7.856;2022-12-31T03:13:11;99622.06;;;19.83;44.44
77303;BME280;66363;49.828;7.856;2022-12-31T03:15:37;99632.16;;;19.81;44.37
77303;BME280;66363;49.828;7.856;2022-12-31T03:18:08;99632.00;;;19.83;44.30
77303;BME280;66363;49.828;7.856;2022-12-31T03:20:36;99616.00;;;19.81;44.22
77303;BME280;66363;49.828;7.856;2022-12-31T03:23:04;99633.84;;;19.82;44.30
77303;BME280;66363;49.828;7.856;2022-12-31T03:25:30;99632.16;;;19.81;44.39
77303;BME280;66363;49.828;7.856;2022-12-31T03:27:56;99632.16;;;19.81;44.42
77303;BME280;66363;49.828;7.856;2022-12-31T03:30:22;99630.31;;;19.82;44.41
77303;BME280;66363;49.828;7.856;2022-12-31T03:32:48;99632.00;;;19.83;44.40
77303;BME280;66363;49.828;7.856;2022-12-31T03:35:17;99640.25;;;19.81;44.39
77303;BME280;66363;49.828;7.856;2022-12-31T03:37:43;99633.84;;;19.82;44.73
77303;BME280;66363;49.828;7.856;2022-12-31T03:40:11;99642.75;;;19.83;44.39
77303;BME280;66363;49.828;7.856;2022-12-31T03:42:37;99634.03;;;19.81;44.50
77303;BME280;66363;49.828;7.856;2022-12-31T03:45:03;99630.31;;;19.82;44.31
77303;BME280;66363;49.828;7.856;2022-12-31T03:47:29;99653.72;;;19.81;44.38
77303;BME280;66363;49.828;7.856;2022-12-31T03:49:54;99641.09;;;19.82;44.37
77303;BME280;66363;49.828;7.856;2022-12-31T03:52:21;99617.88;;;19.81;44.54
77303;BME280;66363;49.828;7.856;2022-12-31T03:54:47;99643.78;;;19.82;44.30
77303;BME280;66363;49.828;7.856;2022-12-31T03:57:12;99631.16;;;19.82;44.40
77303;BME280;66363;49.828;7.856;2022-12-31T03:59:38;99648.31;;;19.81;44.51
77303;BME280;66363;49.828;7.856;2022-12-31T04:02:03;99624.09;;;19.81;44.43
77303;BME280;66363;49.828;7.856;2022-12-31T04:04:29;99644.78;;;19.81;44.40
77303;BME280;66363;49.828;7.856;2022-12-31T04:06:55;99639.41;;;19.81;44.37
77303;BME280;66363;49.828;7.856;2022-12-31T04:09:22;99655.56;;;19.81;44.43
77303;BME280;66363;49.828;7.856;2022-12-31T04:11:48;99653.88;;;19.80;44.25
77303;BME280;66363;49.828;7.856;2022-12-31T04:14:13;99654.72;;;19.80;44.51
77303;BME280;66363;49.828;7.856;2022-12-31T04:16:39;99671.72;;;19.81;44.46
77303;BME280;66363;49.828;7.856;2022-12-31T04:19:04;99655.56;;;19.81;44.53
77303;BME280;66363;49.828;7.856;2022-12-31T04:21:30;99656.56;;;19.80;44.48
77303;BME280;66363;49.828;7.856;2022-12-31T04:23:56;99657.41;;;19.80;44.50
77303;BME280;66363;49.828;7.856;2022-12-31T04:26:23;99674.59;;;19.79;44.61
77303;BME280;66363;49.828;7.856;2022-12-31T04:28:48;99689.06;;;19.78;44.51
77303;BME280;66363;49.828;7.856;2022-12-31T04:31:14;99684.53;;;19.79;44.53
77303;BME280;66363;49.828;7.856;2022-12-31T04:33:39;99674.59;;;19.79;44.58
77303;BME280;66363;49.828;7.856;2022-12-31T04:36:07;99683.69;;;19.78;44.63
77303;BME280;66363;49.828;7.856;2022-12-31T04:38:33;99678.28;;;19.78;44.65
77303;BME280;66363;49.828;7.856;2022-12-31T04:40:59;99674.75;;;19.78;44.42
77303;BME280;66363;49.828;7.856;2022-12-31T04:43:26;99686.56;;;19.77;44.62
77303;BME280;66363;49.828;7.856;2022-12-31T04:45:52;99695.66;;;19.76;44.59
77303;BME280;66363;49.828;7.856;2022-12-31T04:48:17;99707.25;;;19.76;44.57
77303;BME280;66363;49.828;7.856;2022-12-31T04:50:44;99714.31;;;19.77;44.80
77303;BME280;66363;49.828;7.856;2022-12-31T04:53:10;99705.41;;;19.77;44.73
77303;BME280;66363;49.828;7.856;2022-12-31T04:55:36;99704.56;;;19.76;44.75
77303;BME280;66363;49.828;7.856;2022-12-31T04:58:01;99696.47;;;19.76;44.74
77303;BME280;66363;49.828;7.856;2022-12-31T05:00:28;99692.13;;;19.75;44.59
77303;BME280;66363;49.828;7.856;2022-12-31T05:02:54;99699.38;;;19.75;44.71
77303;BME280;66363;49.828;7.856;2022-12-31T05:05:19;99702.06;;;19.75;44.69
77303;BME280;66363;49.828;7.856;2022-12-31T05:07:45;99692.13;;;19.75;44.92
77303;BME280;66363;49.828;7.856;2022-12-31T05:10:10;99693.16;;;19.74;44.87
77303;BME280;66363;49.828;7.856;2022-12-31T05:12:36;99696.69;;;19.75;45.02
77303;BME280;66363;49.828;7.856;2022-12-31T05:15:02;99689.41;;;19.75;44.66
77303;BME280;66363;49.828;7.856;2022-12-31T05:17:29;99703.09;;;19.74;44.72
77303;BME280;66363;49.828;7.856;2022-12-31T05:19:54;99704.94;;;19.73;44.86
77303;BME280;66363;49.828;7.856;2022-12-31T05:22:20;99712.19;;;19.73;45.00
77303;BME280;66363;49.828;7.856;2022-12-31T05:24:45;99714.69;;;19.74;44.89
77303;BME280;66363;49.828;7.856;2022-12-31T05:27:11;99701.41;;;19.73;44.72
77303;BME280;66363;49.828;7.856;2022-12-31T05:29:36;99713.03;;;19.73;44.94
77303;BME280;66363;49.828;7.856;2022-12-31T05:32:02;99706.78;;;19.73;44.72
77303;BME280;66363;49.828;7.856;2022-12-31T05:34:29;99721.09;;;19.73;44.81
77303;BME280;66363;49.828;7.856;2022-12-31T05:36:55;99709.50;;;19.73;44.87
77303;BME280;66363;49.828;7.856;2022-12-31T05:39:20;99714.88;;;19.73;44.99
77303;BME280;66363;49.828;7.856;2022-12-31T05:41:46;99716.72;;;19.72;44.88
77303;BME280;66363;49.828;7.856;2022-12-31T05:44:12;99721.09;;;19.73;44.69
77303;BME280;66363;49.828;7.856;2022-12-31T05:46:37;99705.97;;;19.72;44.84
77303;BME280;66363;49.828;7.856;2022-12-31T05:49:03;99718.41;;;19.73;44.81
77303;BME280;66363;49.828;7.856;2022-12-31T05:51:30;99728.34;;;19.73;44.75
77303;BME280;66363;49.828;7.856;2022-12-31T05:53:55;99723.78;;;19.73;44.77
77303;BME280;66363;49.828;7.856;2022-12-31T05:56:21;99723.97;;;19.72;44.73
77303;BME280;66363;49.828;7.856;2022-12-31T05:58:47;99732.03;;;19.72;44.93
77303;BME280;66363;49.828;7.856;2022-12-31T06:01:12;99734.72;;;19.72;44.95
77303;BME280;66363;49.828;7.856;2022-12-31T06:03:38;99734.72;;;19.72;44.88
77303;BME280;66363;49.828;7.856;2022-12-31T06:06:05;99734.56;;;19.73;44.79
77303;BME280;66363;49.828;7.856;2022-12-31T06:08:32;99733.72;;;19.73;44.80
77303;BME280;66363;49.828;7.856;2022-12-31T06:10:58;99753.41;;;19.73;44.78
77303;BME280;66363;49.828;7.856;2022-12-31T06:13:24;99744.50;;;19.73;45.02
77303;BME280;66363;49.828;7.856;2022-12-31T06:15:49;99750.72;;;19.73;44.86
77303;BME280;66363;49.828;7.856;2022-12-31T06:18:15;99743.66;;;19.72;44.77
77303;BME280;66363;49.828;7.856;2022-12-31T06:20:40;99759.81;;;19.72;44.79
77303;BME280;66363;49.828;7.856;2022-12-31T06:23:06;99747.19;;;19.73;44.93
77303;BME280;66363;49.828;7.856;2022-12-31T06:25:34;99774.94;;;19.73;44.84
77303;BME280;66363;49.828;7.856;2022-12-31T06:28:00;99768.72;;;19.73;44.81
77303;BME280;66363;49.828;7.856;2022-12-31T06:30:26;99763.34;;;19.73;44.81
77303;BME280;66363;49.828;7.856;2022-12-31T06:32:51;99770.56;;;19.72;44.84
77303;BME280;66363;49.828;7.856;2022-12-31T06:35:16;99777.81;;;19.72;44.80
77303;BME280;66363;49.828;7.856;2022-12-31T06:37:42;99799.19;;;19.73;44.76
77303;BME280;66363;49.828;7.856;2022-12-31T06:40:09;99787.56;;;19.73;44.82
77303;BME280;66363;49.828;7.856;2022-12-31T06:42:36;99792.13;;;19.72;44.79
77303;BME280;66363;49.828;7.856;2022-12-31T06:45:01;99781.34;;;19.72;44.76
77303;BME280;66363;49.828;7.856;2022-12-31T06:47:27;99793.97;;;19.72;44.98
77303;BME280;66363;49.828;7.856;2022-12-31T06:49:53;99804.72;;;19.72;44.90
77303;BME280;66363;49.828;7.856;2022-12-31T06:52:18;99789.41;;;19.72;44.78
77303;BME280;66363;49.828;7.856;2022-12-31T06:54:44;99799.19;;;19.73;44.68
77303;BME280;66363;49.828;7.856;2022-12-31T06:57:10;99792.94;;;19.73;44.93
77303;BME280;66363;49.828;7.856;2022-12-31T06:59:38;99790.25;;;19.73;45.12
77303;BME280;66363;49.828;7.856;2022-12-31T07:02:16;99777.63;;;19.73;44.98
77303;BME280;66363;49.828;7.856;2022-12-31T07:05:06;99791.94;;;19.74;45.04
77303;BME280;66363;49.828;7.856;2022-12-31T07:07:39;99806.41;;;19.73;45.20
77303;BME280;66363;49.828;7.856;2022-12-31T07:10:15;99801.03;;;19.73;45.30
77303;BME280;66363;49.828;7.856;2022-12-31T07:12:55;99812.63;;;19.73;44.96
77303;BME280;66363;49.828;7.856;2022-12-31T07:15:36;99807.25;;;19.73;45.00
77303;BME280;66363;49.828;7.856;2022-12-31T07:18:09;99808.25;;;19.72;46.46
77303;BME280;66363;49.828;7.856;2022-12-31T07:20:39;99804.91;;;19.70;46.38
77303;BME280;66363;49.828;7.856;2022-12-31T07:23:06;99805.75;;;19.71;46.51
77303;BME280;66363;49.828;7.856;2022-12-31T07:25:32;99807.59;;;19.70;46.75
77303;BME280;66363;49.828;7.856;2022-12-31T07:28:09;99807.59;;;19.70;47.08
77303;BME280;66363;49.828;7.856;2022-12-31T07:30:45;99814.84;;;19.70;46.93
77303;BME280;66363;49.828;7.856;2022-12-31T07:33:32;99821.91;;;19.71;47.68
77303;BME280;66363;49.828;7.856;2022-12-31T07:36:07;99821.91;;;19.71;47.52
77303;BME280;66363;49.828;7.856;2022-12-31T07:38:39;99827.47;;;19.69;47.63
77303;BME280;66363;49.828;7.856;2022-12-31T07:41:14;99832.66;;;19.71;47.16
77303;BME280;66363;49.828;7.856;2022-12-31T07:43:52;99832.66;;;19.71;48.23
77303;BME280;66363;49.828;7.856;2022-12-31T07:46:29;99846.31;;;19.69;47.85
77303;BME280;66363;49.828;7.856;2022-12-31T07:48:58;99845.28;;;19.70;48.11
77303;BME280;66363;49.828;7.856;2022-12-31T07:51:24;99853.38;;;19.70;48.04
77303;BME280;66363;49.828;7.856;2022-12-31T07:53:49;99854.22;;;19.71;48.55
77303;BME280;66363;49.828;7.856;2022-12-31T07:56:15;99867.69;;;19.46;49.38
77303;BME280;66363;49.828;7.856;2022-12-31T07:58:49;99863.69;;;19.02;51.13
77303;BME280;66363;49.828;7.856;2022-12-31T08:01:32;99869.75;;;18.79;51.99
77303;BME280;66363;49.828;7.856;2022-12-31T08:04:02;99863.69;;;18.77;52.12
77303;BME280;66363;49.828;7.856;2022-12-31T08:06:37;99865.88;;;18.74;52.30
77303;BME280;66363;49.828;7.856;2022-12-31T08:09:11;99879.09;;;18.51;53.04
77303;BME280;66363;49.828;7.856;2022-12-31T08:11:47;99869.06;;;18.61;52.90
77303;BME280;66363;49.828;7.856;2022-12-31T08:14:17;99860.59;;;18.48;53.01
77303;BME280;66363;49.828;7.856;2022-12-31T08:16:45;99868.66;;;18.48;53.38
77303;BME280;66363;49.828;7.856;2022-12-31T08:19:19;99864.50;;;18.53;53.13
77303;BME280;66363;49.828;7.856;2022-12-31T08:21:55;99857.59;;;18.51;53.03
77303;BME280;66363;49.828;7.856;2022-12-31T08:24:28;99865.69;;;18.59;52.99
77303;BME280;66363;49.828;7.856;2022-12-31T08:27:03;99877.09;;;18.53;53.21
77303;BME280;66363;49.828;7.856;2022-12-31T08:29:35;99868.84;;;18.54;52.94
77303;BME280;66363;49.828;7.856;2022-12-31T08:32:11;99867.06;;;18.71;52.45
77303;BME280;66363;49.828;7.856;2022-12-31T08:34:47;99868.09;;;18.86;51.76
77303;BME280;66363;49.828;7.856;2022-12-31T08:37:20;99858.50;;;19.00;51.17
77303;BME280;66363;49.828;7.856;2022-12-31T08:40:02;99859.50;;;19.07;50.56
77303;BME280;66363;49.828;7.856;2022-12-31T08:42:36;99870.28;;;19.15;50.34
77303;BME280;66363;49.828;7.856;2022-12-31T08:45:12;99865.22;;;19.20;50.14
77303;BME280;66363;49.828;7.856;2022-12-31T08:47:48;99886.22;;;19.25;50.08
77303;BME280;66363;49.828;7.856;2022-12-31T08:50:18;99892.09;;;19.28;49.92
77303;BME280;66363;49.828;7.856;2022-12-31T08:52:44;99890.91;;;19.31;49.88
77303;BME280;66363;49.828;7.856;2022-12-31T08:55:15;99895.97;;;19.34;49.86
77303;BME280;66363;49.828;7.856;2022-12-31T08:57:47;99893.09;;;19.36;49.55
77303;BME280;66363;49.828;7.856;2022-12-31T09:00:18;99883.84;;;19.38;49.50
77303;BME280;66363;49.828;7.856;2022-12-31T09:05:51;99886.03;;;19.43;49.53
77303;BME280;66363;49.828;7.856;2022-12-31T09:08:23;99891.25;;;19.44;49.33
77303;BME280;66363;49.828;7.856;2022-12-31T09:10:56;99894.63;;;19.46;49.28
77303;BME280;66363;49.828;7.856;2022-12-31T09:13:31;99900.84;;;19.47;48.99
77303;BME280;66363;49.828;7.856;2022-12-31T09:16:06;99889.91;;;19.48;48.97
77303;BME280;66363;49.828;7.856;2022-12-31T09:18:38;99909.59;;;19.49;48.89
77303;BME280;66363;49.828;7.856;2022-12-31T09:21:04;99900.34;;;19.51;48.90
77303;BME280;66363;49.828;7.856;2022-12-31T09:23:31;99910.94;;;19.53;48.59
77303;BME280;66363;49.828;7.856;2022-12-31T09:25:58;99906.38;;;19.53;48.83
77303;BME280;66363;49.828;7.856;2022-12-31T09:28:36;99906.03;;;19.56;49.01
77303;BME280;66363;49.828;7.856;2022-12-31T09:31:08;99924.88;;;19.56;49.19
77303;BME280;66363;49.828;7.856;2022-12-31T09:33:41;99921.19;;;19.57;49.04
77303;BME280;66363;49.828;7.856;2022-12-31T09:36:15;99921.19;;;19.57;49.25
77303;BME280;66363;49.828;7.856;2022-12-31T09:38:44;99919.34;;;19.58;48.95
77303;BME280;66363;49.828;7.856;2022-12-31T09:41:15;99917.50;;;19.58;49.11
77303;BME280;66363;49.828;7.856;2022-12-31T09:50:20;99933.97;;;19.63;48.98
77303;BME280;66363;49.828;7.856;2022-12-31T09:56:03;99948.94;;;19.66;48.85
77303;BME280;66363;49.828;7.856;2022-12-31T09:58:40;99943.56;;;19.66;48.80
77303;BME280;66363;49.828;7.856;2022-12-31T10:01:19;99953.16;;;19.69;48.72
77303;BME280;66363;49.828;7.856;2022-12-31T10:04:34;99962.25;;;19.68;48.77
77303;BME280;66363;49.828;7.856;2022-12-31T10:07:15;99956.69;;;19.69;48.63
77303;BME280;66363;49.828;7.856;2022-12-31T10:09:59;99956.69;;;19.69;48.77
77303;BME280;66363;49.828;7.856;2022-12-31T10:15:52;99952.47;;;19.75;48.48
77303;BME280;66363;49.828;7.856;2022-12-31T10:18:32;99971.13;;;19.76;48.51
77303;BME280;66363;49.828;7.856;2022-12-31T10:21:12;99964.72;;;19.77;48.33
77303;BME280;66363;49.828;7.856;2022-12-31T10:23:52;99980.53;;;19.80;48.36
77303;BME280;66363;49.828;7.856;2022-12-31T10:26:29;99975.84;;;19.82;48.23
77303;BME280;66363;49.828;7.856;2022-12-31T10:29:11;99971.97;;;19.85;48.29
77303;BME280;66363;49.828;7.856;2022-12-31T10:31:52;99959.34;;;19.85;48.14
77303;BME280;66363;49.828;7.856;2022-12-31T10:34:21;99968.09;;;19.87;48.32
77303;BME280;66363;49.828;7.856;2022-12-31T10:36:55;99974.47;;;19.86;48.30
77303;BME280;66363;49.828;7.856;2022-12-31T10:39:33;99974.31;;;19.88;48.42
77303;BME280;66363;49.828;7.856;2022-12-31T10:42:21;99971.44;;;19.89;48.25
77303;BME280;66363;49.828;7.856;2022-12-31T10:45:28;99983.06;;;19.90;47.90
77303;BME280;66363;49.828;7.856;2022-12-31T10:48:28;99973.97;;;19.91;48.00
77303;BME280;66363;49.828;7.856;2022-12-31T10:51:36;99974.81;;;19.91;47.87
77303;BME280;66363;49.828;7.856;2022-12-31T10:54:43;99980.88;;;19.93;48.08
77303;BME280;66363;49.828;7.856;2022-12-31T10:57:31;99980.03;;;19.93;47.90
77303;BME280;66363;49.828;7.856;2022-12-31T11:00:10;99987.78;;;19.96;47.93
77303;BME280;66363;49.828;7.856;2022-12-31T11:12:04;99968.06;;;19.95;47.75
77303;BME280;66363;49.828;7.856;2022-12-31T11:17:40;99980.19;;;19.99;47.54
77303;BME280;66363;49.828;7.856;2022-12-31T11:20:28;99972.75;;;20.02;47.76
77303;BME280;66363;49.828;7.856;2022-12-31T11:23:12;99977.97;;;20.03;47.80
77303;BME280;66363;49.828;7.856;2022-12-31T11:25:52;99972.22;;;20.06;47.80
77303;BME280;66363;49.828;7.856;2022-12-31T11:28:53;99966.69;;;20.08;47.79
77303;BME280;66363;49.828;7.856;2022-12-31T11:31:36;99978.97;;;20.10;47.36
77303;BME280;66363;49.828;7.856;2022-12-31T11:34:20;99987.22;;;20.09;47.62
77303;BME280;66363;49.828;7.856;2022-12-31T11:37:09;99971.38;;;20.06;47.72
77303;BME280;66363;49.828;7.856;2022-12-31T11:39:47;99972.41;;;20.05;47.69
77303;BME280;66363;49.828;7.856;2022-12-31T11:42:20;99981.16;;;20.07;47.61
77303;BME280;66363;49.828;7.856;2022-12-31T11:44:56;99980.31;;;20.06;47.55
77303;BME280;66363;49.828;7.856;2022-12-31T11:47:54;99968.69;;;20.06;47.58
77303;BME280;66363;49.828;7.856;2022-12-31T11:50:27;99967.84;;;20.05;47.85
77303;BME280;66363;49.828;7.856;2022-12-31T11:53:11;99960.97;;;20.03;47.80
77303;BME280;66363;49.828;7.856;2022-12-31T11:55:46;99965.50;;;20.02;47.60
77303;BME280;66363;49.828;7.856;2022-12-31T11:58:18;99976.78;;;20.06;47.63
77303;BME280;66363;49.828;7.856;2022-12-31T12:00:51;99970.72;;;20.12;48.01
77303;BME280;66363;49.828;7.856;2022-12-31T12:03:18;99969.84;;;20.19;47.64
77303;BME280;66363;49.828;7.856;2022-12-31T12:05:44;99961.25;;;20.24;47.49
77303;BME280;66363;49.828;7.856;2022-12-31T12:08:10;99960.06;;;20.26;47.54
77303;BME280;66363;49.828;7.856;2022-12-31T12:10:41;99950.94;;;20.27;47.36
77303;BME280;66363;49.828;7.856;2022-12-31T12:13:13;99947.88;;;20.30;47.41
77303;BME280;66363;49.828;7.856;2022-12-31T12:15:47;99946.88;;;20.31;47.47
77303;BME280;66363;49.828;7.856;2022-12-31T12:18:24;99949.75;;;20.30;47.53
77303;BME280;66363;49.828;7.856;2022-12-31T12:20:50;99943.50;;;20.29;47.47
77303;BME280;66363;49.828;7.856;2022-12-31T12:23:20;99946.03;;;20.31;48.04
77303;BME280;66363;49.828;7.856;2022-12-31T12:33:42;99949.44;;;20.64;44.07
77303;BME280;66363;49.828;7.856;2022-12-31T12:36:11;99933.78;;;20.59;44.27
77303;BME280;66363;49.828;7.856;2022-12-31T12:38:37;99935.94;;;21.18;43.21
77303;BME280;66363;49.828;7.856;2022-12-31T12:41:05;99944.88;;;21.41;42.08
77303;BME280;66363;49.828;7.856;2022-12-31T12:43:32;99941.56;;;21.54;42.08
77303;BME280;66363;49.828;7.856;2022-12-31T12:46:00;99929.44;;;21.50;41.97
77303;BME280;66363;49.828;7.856;2022-12-31T12:48:31;99936.75;;;21.79;41.58
77303;BME280;66363;49.828;7.856;2022-12-31T12:51:08;99934.69;;;21.95;41.31
77303;BME280;66363;49.828;7.856;2022-12-31T12:53:42;99932.75;;;21.75;41.25
77303;BME280;66363;49.828;7.856;2022-12-31T12:56:18;99931.25;;;21.12;43.41
77303;BME280;66363;49.828;7.856;2022-12-31T12:58:59;99923.13;;;20.97;43.38
77303;BME280;66363;49.828;7.856;2022-12-31T13:01:36;99936.09;;;20.40;44.26
77303;BME280;66363;49.828;7.856;2022-12-31T13:04:18;99932.75;;;21.14;43.04
77303;BME280;66363;49.828;7.856;2022-12-31T13:07:01;99940.44;;;21.03;43.37
77303;BME280;66363;49.828;7.856;2022-12-31T13:09:45;99934.31;;;21.31;42.64
77303;BME280;66363;49.828;7.856;2022-12-31T13:12:17;99930.59;;;21.10;42.94
77303;BME280;66363;49.828;7.856;2022-12-31T13:14:53;99916.84;;;21.57;41.86
77303;BME280;66363;49.828;7.856;2022-12-31T13:17:33;99912.16;;;21.74;41.04
77303;BME280;66363;49.828;7.856;2022-12-31T13:20:05;99911.22;;;21.81;41.30
77303;BME280;66363;49.828;7.856;2022-12-31T13:22:39;99901.53;;;22.16;40.30
77303;BME280;66363;49.828;7.856;2022-12-31T13:25:21;99912.72;;;22.64;39.15
77303;BME280;66363;49.828;7.856;2022-12-31T13:27:52;99920.06;;;22.70;39.31
77303;BME280;66363;49.828;7.856;2022-12-31T13:30:21;99910.28;;;22.33;39.58
77303;BME280;66363;49.828;7.856;2022-12-31T13:32:52;99906.34;;;21.47;40.72
77303;BME280;66363;49.828;7.856;2022-12-31T13:35:29;99903.22;;;20.75;42.47
77303;BME280;66363;49.828;7.856;2022-12-31T13:38:01;99896.84;;;19.98;44.73
77303;BME280;66363;49.828;7.856;2022-12-31T13:40:41;99908.91;;;19.71;45.61
77303;BME280;66363;49.828;7.856;2022-12-31T13:43:16;99904.56;;;19.13;47.40
77303;BME280;66363;49.828;7.856;2022-12-31T13:45:55;99911.25;;;18.69;48.77
77303;BME280;66363;49.828;7.856;2022-12-31T13:48:29;99910.09;;;18.29;49.54
77303;BME280;66363;49.828;7.856;2022-12-31T13:51:02;99910.34;;;18.02;50.63
77303;BME280;66363;49.828;7.856;2022-12-31T13:53:35;99927.09;;;17.95;51.02
77303;BME280;66363;49.828;7.856;2022-12-31T13:56:07;99925.16;;;17.80;50.82
77303;BME280;66363;49.828;7.856;2022-12-31T13:58:37;99922.00;;;17.84;50.77
77303;BME280;66363;49.828;7.856;2022-12-31T14:01:08;99919.78;;;17.80;50.77